Time;durP1;ratioP1;P1;durP2;ratioP2;P2;SDS_P1;SDS_P2;PMS_P1;PMS_P2;Temp;Humidity;BMP_temperature;BMP_pressure;BME280_temperature;BME280_humidity;BME280_pressure;Samples;Min_cycle;Max_cycle;Signal;HPM_P1;HPM_P2
2023/04/24 00:01:58;;;;;;;3.20;1.57;;;;;;;10.15;95.74;98873.91;5151408;27;20202;-73
2023/04/24 00:04:25;;;;;;;3.77;1.93;;;;;;;10.17;94.43;98866.13;5151513;27;20230;-73
2023/04/24 00:06:54;;;;;;;2.30;1.70;;;;;;;9.96;95.47;98860.84;5151379;27;20731;-73
2023/04/24 00:09:21;;;;;;;2.63;1.83;;;;;;;10.08;93.94;98862.50;5151737;27;20216;-73
2023/04/24 00:11:49;;;;;;;3.10;1.77;;;;;;;10.26;91.81;98860.31;5151480;27;20196;-73
2023/04/24 00:14:16;;;;;;;2.33;1.63;;;;;;;10.34;90.93;98857.22;5151488;27;20235;-74
2023/04/24 00:16:43;;;;;;;1.10;1.00;;;;;;;10.50;89.94;98857.72;5151143;27;20204;-73
2023/04/24 00:19:11;;;;;;;2.33;1.67;;;;;;;10.53;89.23;98854.94;5151358;27;20223;-73
2023/04/24 00:21:37;;;;;;;1.97;1.63;;;;;;;10.54;89.26;98854.00;5151666;27;20235;-74
2023/04/24 00:24:05;;;;;;;2.77;1.80;;;;;;;10.50;89.21;98855.16;5151200;27;20228;-74
2023/04/24 00:26:31;;;;;;;4.63;1.50;;;;;;;10.68;87.36;98854.69;5151219;27;20241;-73
2023/04/24 00:28:59;;;;;;;1.93;1.70;;;;;;;10.72;87.69;98848.41;5151393;27;20200;-74
2023/04/24 00:31:26;;;;;;;1.23;1.07;;;;;;;10.79;86.82;98852.09;5151160;27;20196;-73
2023/04/24 00:33:53;;;;;;;2.23;1.53;;;;;;;10.93;85.14;98843.38;5151431;27;20228;-73
2023/04/24 00:36:20;;;;;;;5.57;1.70;;;;;;;10.99;84.42;98842.91;5151033;27;20188;-73
2023/04/24 00:38:47;;;;;;;1.87;1.50;;;;;;;11.03;84.31;98847.66;5151486;27;20253;-73
2023/04/24 00:41:14;;;;;;;4.13;1.53;;;;;;;10.98;84.36;98842.09;5151220;27;20229;-73
2023/04/24 00:43:41;;;;;;;2.20;1.70;;;;;;;10.89;84.83;98842.81;5151469;27;20211;-73
2023/04/24 00:46:09;;;;;;;2.10;1.70;;;;;;;10.94;84.22;98845.00;5150837;27;20276;-73
2023/04/24 00:48:37;;;;;;;3.37;2.00;;;;;;;10.89;84.41;98847.91;5151012;27;20208;-73
2023/04/24 00:51:04;;;;;;;2.23;1.63;;;;;;;10.83;84.08;98844.09;5150888;27;20215;-73
2023/04/24 00:53:31;;;;;;;2.07;1.50;;;;;;;10.76;85.19;98831.88;5150901;27;20672;-73
2023/04/24 00:55:58;;;;;;;3.33;1.20;;;;;;;10.95;82.52;98832.09;5150782;27;20596;-74
2023/04/24 00:58:25;;;;;;;1.70;1.40;;;;;;;11.01;82.47;98830.81;5150905;27;20264;-73
2023/04/24 01:00:53;;;;;;;1.33;1.23;;;;;;;11.06;81.41;98834.63;5151081;27;20227;-73
2023/04/24 01:03:22;;;;;;;3.57;1.70;;;;;;;10.97;82.97;98825.13;5150896;27;20204;-73
2023/04/24 01:05:50;;;;;;;4.20;1.73;;;;;;;11.05;81.88;98827.91;5150703;27;20276;-73
2023/04/24 01:08:17;;;;;;;2.70;1.63;;;;;;;11.06;82.06;98834.63;5151132;27;20203;-73
2023/04/24 01:10:45;;;;;;;1.87;1.53;;;;;;;11.10;81.54;98823.22;5151015;27;20227;-73
2023/04/24 01:13:12;;;;;;;1.57;1.40;;;;;;;11.16;81.25;98827.03;5151179;27;20235;-73
2023/04/24 01:15:39;;;;;;;1.53;1.30;;;;;;;11.06;81.86;98828.72;5150709;27;20227;-73
2023/04/24 01:18:06;;;;;;;2.87;1.93;;;;;;;11.08;81.89;98826.81;5150715;27;20663;-73
2023/04/24 01:20:36;;;;;;;9.07;2.20;;;;;;;11.06;81.55;98824.41;5150703;27;20264;-73
2023/04/24 01:23:04;;;;;;;1.90;1.53;;;;;;;10.96;81.61;98817.56;5151028;27;20208;-73
2023/04/24 01:25:31;;;;;;;4.87;1.50;;;;;;;10.98;81.75;98815.69;5150717;27;20258;-73
2023/04/24 01:27:58;;;;;;;2.17;1.50;;;;;;;10.91;81.79;98817.94;5151806;27;20196;-73
2023/04/24 01:30:26;;;;;;;1.60;1.43;;;;;;;10.85;82.88;98815.84;5154456;27;20242;-73
2023/04/24 01:32:53;;;;;;;1.47;1.10;;;;;;;10.82;83.86;98816.91;5154325;27;20199;-74
2023/04/24 01:35:21;;;;;;;3.00;1.70;;;;;;;10.80;83.88;98820.50;5154186;27;20212;-74
2023/04/24 01:37:48;;;;;;;3.03;1.80;;;;;;;10.76;84.40;98813.97;5154123;27;20258;-73
2023/04/24 01:40:16;;;;;;;2.93;2.17;;;;;;;10.37;84.86;98803.34;5154212;27;20220;-74
2023/04/24 01:42:43;;;;;;;2.87;1.80;;;;;;;10.42;84.60;98803.81;5154067;27;20200;-73
2023/04/24 01:45:12;;;;;;;4.27;1.43;;;;;;;10.44;84.55;98801.94;5154266;27;20657;-73
2023/04/24 01:47:39;;;;;;;2.87;1.87;;;;;;;10.48;84.67;98798.22;5153996;27;20271;-73
2023/04/24 01:50:07;;;;;;;2.57;1.87;;;;;;;10.41;85.86;98803.00;5153983;27;20220;-73
2023/04/24 01:52:35;;;;;;;1.87;1.33;;;;;;;10.47;85.61;98799.16;5154016;27;20204;-73
2023/04/24 01:55:03;;;;;;;1.87;1.53;;;;;;;10.33;85.67;98799.41;5153681;27;20239;-74
2023/04/24 01:57:32;;;;;;;1.80;1.50;;;;;;;10.44;84.51;98799.38;5153495;27;20196;-73
2023/04/24 01:59:59;;;;;;;2.87;1.80;;;;;;;10.26;86.53;98795.63;5153702;27;20228;-73
2023/04/24 02:02:28;;;;;;;1.87;1.53;;;;;;;10.05;87.50;98796.31;5153492;27;20192;-73
2023/04/24 02:04:55;;;;;;;3.47;1.83;;;;;;;9.98;88.40;98795.16;5153459;27;20220;-73
2023/04/24 02:07:22;;;;;;;4.40;1.30;;;;;;;10.07;88.37;98784.25;5153547;27;20196;-73
2023/04/24 02:09:49;;;;;;;1.53;1.37;;;;;;;9.91;89.29;98786.31;5154086;27;20223;-73
2023/04/24 02:12:17;;;;;;;3.87;1.93;;;;;;;9.92;89.58;98777.75;5153555;27;20211;-73
2023/04/24 02:14:45;;;;;;;1.60;1.50;;;;;;;9.87;89.75;98777.28;5153522;27;20934;-73
2023/04/24 02:17:12;;;;;;;1.40;1.30;;;;;;;10.08;88.52;98787.63;5153797;27;20208;-73
2023/04/24 02:19:38;;;;;;;2.50;1.10;;;;;;;10.29;87.69;98786.00;5153438;27;20220;-73
2023/04/24 02:22:05;;;;;;;1.83;1.33;;;;;;;10.36;87.51;98788.94;5153112;27;20204;-73
2023/04/24 02:24:32;;;;;;;2.67;1.60;;;;;;;10.34;87.53;98798.47;5153357;27;20227;-73
2023/04/24 02:27:00;;;;;;;1.50;1.40;;;;;;;10.42;87.66;98796.13;5153241;27;20199;-73
2023/04/24 02:29:26;;;;;;;2.20;1.70;;;;;;;10.40;88.30;98792.88;5153252;27;20220;-73
2023/04/24 02:31:55;;;;;;;3.03;1.80;;;;;;;10.42;88.65;98791.03;5153045;27;20199;-73
2023/04/24 02:34:22;;;;;;;2.30;1.60;;;;;;;10.45;88.60;98785.69;5152920;27;20632;-73
2023/04/24 02:36:49;;;;;;;2.77;1.67;;;;;;;10.54;90.14;98774.75;5152949;27;20196;-73
2023/04/24 02:39:17;;;;;;;2.87;1.70;;;;;;;10.47;91.85;98786.38;5152890;27;20733;-74
2023/04/24 02:41:43;;;;;;;1.47;1.37;;;;;;;10.27;95.36;98794.72;5153459;27;20249;-73
2023/04/24 02:44:10;;;;;;;2.10;1.57;;;;;;;9.75;95.73;98809.63;5153331;27;20501;-73
2023/04/24 02:46:37;;;;;;;2.27;1.60;;;;;;;9.96;98.14;98802.94;5152818;27;20550;-73
2023/04/24 02:49:06;;;;;;;3.03;1.50;;;;;;;9.70;99.58;98816.78;5153237;27;20220;-73
2023/04/24 02:51:32;;;;;;;3.67;1.77;;;;;;;9.70;99.57;98820.16;5152693;27;20711;-74
2023/04/24 02:53:59;;;;;;;3.43;1.80;;;;;;;9.65;98.83;98814.56;5153184;27;20239;-73
2023/04/24 02:56:26;;;;;;;4.60;1.90;;;;;;;9.50;99.49;98810.59;5152610;27;20206;-73
2023/04/24 02:58:53;;;;;;;2.80;1.77;;;;;;;9.55;100.00;98816.19;5152988;27;20261;-73
2023/04/24 03:01:20;;;;;;;2.17;1.57;;;;;;;9.61;99.92;98808.06;5152557;27;20695;-73
2023/04/24 03:03:47;;;;;;;2.43;1.73;;;;;;;9.70;99.24;98804.84;5152441;27;20683;-73
2023/04/24 03:06:15;;;;;;;2.40;1.63;;;;;;;9.75;98.92;98801.97;5152442;27;20203;-73
2023/04/24 03:08:42;;;;;;;1.70;1.60;;;;;;;9.70;99.30;98797.19;5152476;27;20200;-73
2023/04/24 03:11:08;;;;;;;3.13;1.80;;;;;;;9.37;100.00;98787.69;5152815;27;20215;-73
2023/04/24 03:13:35;;;;;;;3.10;1.90;;;;;;;9.35;100.00;98786.19;5152201;27;20701;-73
2023/04/24 03:16:02;;;;;;;1.27;1.17;;;;;;;9.62;93.78;98788.47;5152303;27;20707;-73
2023/04/24 03:18:29;;;;;;;2.67;2.07;;;;;;;9.78;92.94;98780.50;5152331;27;20590;-73
2023/04/24 03:20:56;;;;;;;5.63;2.13;;;;;;;9.96;92.20;98776.56;5152391;27;20222;-73
2023/04/24 03:23:24;;;;;;;2.63;1.57;;;;;;;10.11;90.13;98785.63;5152372;27;20196;-73
2023/04/24 03:25:51;;;;;;;3.60;2.03;;;;;;;9.92;94.20;98785.41;5151993;27;20219;-73
2023/04/24 03:28:17;;;;;;;2.13;1.33;;;;;;;9.80;96.97;98783.75;5151992;27;20261;-73
2023/04/24 03:30:44;;;;;;;2.93;1.67;;;;;;;9.62;97.89;98783.34;5151917;27;20721;-73
2023/04/24 03:33:11;;;;;;;2.67;1.63;;;;;;;9.57;98.05;98783.72;5152102;27;20192;-73
2023/04/24 03:35:38;;;;;;;2.47;1.77;;;;;;;9.69;95.83;98774.34;5151791;27;20528;-73
2023/04/24 03:38:05;;;;;;;2.30;2.10;;;;;;;9.91;93.14;98783.75;5151864;27;20249;-73
2023/04/24 03:40:33;;;;;;;1.93;1.63;;;;;;;10.05;91.30;98785.28;5151796;27;20250;-73
2023/04/24 03:43:00;;;;;;;1.43;1.20;;;;;;;10.10;91.35;98789.13;5151639;27;20200;-73
2023/04/24 03:45:27;;;;;;;1.77;1.57;;;;;;;10.25;90.32;98788.91;5151855;27;20223;-73
2023/04/24 03:47:54;;;;;;;4.20;2.17;;;;;;;10.30;89.99;98785.09;5151877;27;20200;-73
2023/04/24 03:50:21;;;;;;;3.43;2.07;;;;;;;10.43;88.33;98790.09;5151212;27;20212;-74
2023/04/24 03:52:47;;;;;;;2.17;1.60;;;;;;;10.38;89.21;98792.16;5151737;27;20204;-73
2023/04/24 03:55:14;;;;;;;2.03;1.20;;;;;;;10.42;90.92;98798.69;5151842;27;20699;-73
2023/04/24 03:57:43;;;;;;;1.50;1.40;;;;;;;10.61;87.56;98801.44;5151690;27;20200;-73
2023/04/24 04:00:11;;;;;;;2.07;1.57;;;;;;;10.73;86.74;98804.00;5151568;27;20226;-73
2023/04/24 04:02:37;;;;;;;2.40;1.70;;;;;;;10.63;90.06;98804.72;5151417;27;20208;-73
2023/04/24 04:05:04;;;;;;;4.47;1.70;;;;;;;10.75;89.21;98815.72;5151299;27;20224;-73
2023/04/24 04:07:31;;;;;;;2.07;1.70;;;;;;;10.74;90.15;98814.13;5151512;27;20548;-73
2023/04/24 04:09:58;;;;;;;2.77;1.53;;;;;;;10.87;89.53;98816.53;5151269;27;20401;-73
2023/04/24 04:12:25;;;;;;;4.20;2.47;;;;;;;10.87;90.76;98808.84;5151405;27;20709;-74
2023/04/24 04:14:53;;;;;;;4.23;1.80;;;;;;;11.07;88.94;98813.22;5151494;27;20605;-74
2023/04/24 04:17:20;;;;;;;3.07;2.07;;;;;;;11.21;87.86;98821.56;5151227;27;20599;-74
2023/04/24 04:19:47;;;;;;;1.87;1.63;;;;;;;11.31;87.34;98822.44;5151353;27;20216;-74
2023/04/24 04:22:13;;;;;;;3.13;2.17;;;;;;;11.38;87.30;98815.13;5151448;27;20200;-74
2023/04/24 04:24:40;;;;;;;2.97;1.90;;;;;;;11.47;86.65;98817.75;5151201;27;20220;-73
2023/04/24 04:27:08;;;;;;;2.17;1.70;;;;;;;11.54;86.50;98821.41;5151290;27;20260;-74
2023/04/24 04:29:35;;;;;;;3.37;1.90;;;;;;;11.59;85.86;98822.81;5151156;27;20220;-73
2023/04/24 04:32:03;;;;;;;3.77;2.00;;;;;;;11.66;86.87;98816.25;5151187;27;20204;-73
2023/04/24 04:34:31;;;;;;;5.47;2.33;;;;;;;11.55;85.04;98819.69;5151323;27;20231;-73
2023/04/24 04:37:00;;;;;;;3.60;1.93;;;;;;;11.66;85.63;98821.38;5151241;27;20331;-74
2023/04/24 04:39:29;;;;;;;2.83;1.60;;;;;;;11.66;87.03;98819.63;5151451;27;20235;-74
2023/04/24 04:41:56;;;;;;;3.33;1.90;;;;;;;11.72;87.68;98826.00;5151222;27;20200;-74
2023/04/24 04:44:23;;;;;;;2.87;1.83;;;;;;;11.70;88.41;98833.00;5151370;27;20212;-74
2023/04/24 04:46:53;;;;;;;2.40;1.57;;;;;;;11.85;87.86;98831.78;5151303;27;20245;-74
2023/04/24 04:49:21;;;;;;;3.10;2.00;;;;;;;12.16;86.83;98824.16;5151382;27;20268;-74
2023/04/24 04:51:48;;;;;;;4.30;2.47;;;;;;;12.56;88.33;98828.47;5151000;27;20572;-74
2023/04/24 04:54:15;;;;;;;4.37;2.23;;;;;;;12.93;82.99;98830.50;5151132;27;20231;-74
2023/04/24 04:56:42;;;;;;;3.53;2.20;;;;;;;13.12;82.95;98827.97;5150931;27;20655;-74
2023/04/24 04:59:09;;;;;;;2.33;1.70;;;;;;;13.40;82.60;98830.69;5151175;27;20220;-74
2023/04/24 05:01:36;;;;;;;3.10;2.17;;;;;;;13.57;80.98;98827.47;5150700;27;20267;-74
2023/04/24 05:04:03;;;;;;;3.67;1.87;;;;;;;13.76;80.63;98831.78;5154134;27;20227;-74
2023/04/24 05:06:31;;;;;;;2.93;1.80;;;;;;;13.77;79.48;98834.19;5154793;27;20209;-74
2023/04/24 05:08:58;;;;;;;2.60;2.00;;;;;;;13.86;80.85;98829.19;5154619;27;20203;-74
2023/04/24 05:11:25;;;;;;;2.17;1.73;;;;;;;14.19;80.30;98828.69;5154810;27;20201;-74
2023/04/24 05:13:51;;;;;;;3.50;2.10;;;;;;;14.38;76.78;98827.81;5154800;27;20667;-74
2023/04/24 05:16:18;;;;;;;2.23;1.70;;;;;;;14.50;76.94;98831.03;5154596;27;20232;-74
2023/04/24 05:18:45;;;;;;;2.37;2.17;;;;;;;14.53;78.46;98827.38;5154968;27;20257;-74
2023/04/24 05:21:12;;;;;;;5.03;2.13;;;;;;;14.73;76.85;98830.69;5154699;27;20663;-74
2023/04/24 05:23:40;;;;;;;2.57;2.00;;;;;;;14.99;77.11;98825.66;5154659;27;20199;-74
2023/04/24 05:26:07;;;;;;;2.13;1.90;;;;;;;15.45;75.62;98836.72;5154288;27;20758;-74
2023/04/24 05:28:36;;;;;;;2.53;1.90;;;;;;;15.77;72.27;98836.19;5154751;27;20196;-74
2023/04/24 05:31:03;;;;;;;2.53;2.30;;;;;;;15.75;71.21;98838.91;5154382;27;20217;-74
2023/04/24 05:33:30;;;;;;;2.63;2.17;;;;;;;15.74;71.67;98829.56;5154361;27;20212;-74
2023/04/24 05:35:57;;;;;;;2.80;2.10;;;;;;;16.23;67.64;98824.72;5154165;27;20320;-74
2023/04/24 05:38:24;;;;;;;3.80;1.87;;;;;;;16.58;66.88;98824.69;5154717;27;20203;-74
2023/04/24 05:40:52;;;;;;;4.70;2.37;;;;;;;16.81;66.73;98828.34;5154423;27;20212;-74
2023/04/24 05:43:19;;;;;;;2.37;1.87;;;;;;;17.23;67.42;98830.06;5154236;27;20226;-74
2023/04/24 05:45:46;;;;;;;2.93;2.27;;;;;;;17.64;63.82;98822.34;5154165;27;20229;-74
2023/04/24 05:48:13;;;;;;;3.77;2.23;;;;;;;17.36;62.50;98825.22;5153967;27;20192;-74
2023/04/24 05:50:39;;;;;;;2.33;1.90;;;;;;;17.38;63.92;98820.72;5154003;27;20218;-74
2023/04/24 05:53:06;;;;;;;2.97;2.20;;;;;;;17.66;63.90;98830.75;5154026;27;20209;-75
2023/04/24 05:55:34;;;;;;;3.70;2.17;;;;;;;17.52;62.05;98828.81;5153858;27;20240;-75
2023/04/24 05:58:02;;;;;;;2.97;2.03;;;;;;;17.64;62.19;98832.69;5153825;27;20198;-75
2023/04/24 06:00:29;;;;;;;4.37;2.10;;;;;;;17.60;61.75;98828.81;5153799;27;20221;-75
2023/04/24 06:02:56;;;;;;;3.40;2.10;;;;;;;17.70;60.55;98826.06;5153696;27;20210;-75
2023/04/24 06:05:23;;;;;;;2.90;2.07;;;;;;;17.58;60.36;98830.75;5153583;27;20218;-75
2023/04/24 06:07:49;;;;;;;2.70;2.13;;;;;;;17.50;61.42;98835.91;5153695;27;20200;-75
2023/04/24 06:10:16;;;;;;;2.67;1.90;;;;;;;17.89;61.53;98838.69;5153592;27;20249;-74
2023/04/24 06:12:43;;;;;;;2.87;2.20;;;;;;;18.21;61.31;98837.81;5153776;27;20601;-76
2023/04/24 06:15:12;;;;;;;3.83;2.70;;;;;;;18.06;61.77;98831.69;5152992;27;20308;-76
2023/04/24 06:17:39;;;;;;;3.57;2.70;;;;;;;17.81;62.14;98839.47;5153783;27;20196;-76
2023/04/24 06:20:07;;;;;;;3.60;2.40;;;;;;;18.25;64.27;98836.50;5153467;27;20734;-75
2023/04/24 06:22:35;;;;;;;3.80;2.57;;;;;;;18.53;63.36;98830.91;5153435;27;20299;-76
2023/04/24 06:25:02;;;;;;;3.27;2.30;;;;;;;18.45;61.76;98828.34;5153219;27;20608;-76
2023/04/24 06:27:29;;;;;;;4.60;2.50;;;;;;;18.80;61.36;98832.25;5153344;27;20199;-76
2023/04/24 06:29:55;;;;;;;5.00;2.57;;;;;;;18.66;61.61;98822.59;5153328;27;20653;-76
2023/04/24 06:32:25;;;;;;;4.17;2.83;;;;;;;18.85;61.40;98826.56;5153195;27;20203;-75
2023/04/24 06:34:52;;;;;;;3.93;2.73;;;;;;;19.07;62.01;98824.97;5152959;27;20237;-76
2023/04/24 06:37:20;;;;;;;3.27;2.53;;;;;;;19.39;62.05;98829.13;5152916;27;20686;-76
2023/04/24 06:39:47;;;;;;;4.30;2.63;;;;;;;19.72;59.13;98828.88;5152969;27;20219;-76
2023/04/24 06:42:14;;;;;;;3.70;2.40;;;;;;;20.15;59.08;98834.31;5152972;27;20207;-75
2023/04/24 06:44:41;;;;;;;3.23;2.33;;;;;;;20.02;58.39;98830.56;5153074;27;20860;-75
2023/04/24 06:47:09;;;;;;;4.73;3.00;;;;;;;19.87;57.19;98837.53;5152829;27;20197;-76
2023/04/24 06:49:38;;;;;;;3.57;2.40;;;;;;;19.91;56.88;98833.59;5152704;27;20228;-75
2023/04/24 06:52:05;;;;;;;3.00;2.23;;;;;;;19.71;60.35;98835.06;5153053;27;20204;-76
2023/04/24 06:54:32;;;;;;;3.30;2.50;;;;;;;20.24;60.17;98833.25;5152444;27;20226;-76
2023/04/24 06:57:00;;;;;;;2.90;2.30;;;;;;;20.86;57.63;98832.88;5152716;27;20211;-76
2023/04/24 06:59:27;;;;;;;3.03;2.50;;;;;;;21.27;56.56;98832.28;5152599;27;20214;-76
2023/04/24 07:01:54;;;;;;;3.73;2.23;;;;;;;21.43;54.94;98834.63;5152777;27;20206;-78
2023/04/24 07:04:20;;;;;;;2.90;2.47;;;;;;;21.66;53.36;98831.03;5152316;27;20302;-77
2023/04/24 07:06:51;;;;;;;3.60;2.45;;;;;;;22.14;52.93;98834.56;5152459;27;20207;-76
2023/04/24 07:09:18;;;;;;;4.60;2.40;;;;;;;22.27;53.80;98836.47;5152880;27;20220;-76
2023/04/24 07:11:45;;;;;;;2.75;2.42;;;;;;;21.61;52.43;98826.41;5152750;27;20204;-76
2023/04/24 07:14:12;;;;;;;3.28;2.50;;;;;;;21.71;53.51;98833.88;5152649;27;20215;-76
2023/04/24 07:16:38;;;;;;;3.50;2.45;;;;;;;21.86;55.31;98838.97;5152263;27;20231;-76
2023/04/24 07:19:06;;;;;;;3.22;2.40;;;;;;;21.41;53.92;98839.25;5151997;27;20733;-76
2023/04/24 07:21:33;;;;;;;3.55;2.80;;;;;;;21.42;54.89;98848.66;5152110;27;21089;-75
2023/04/24 07:24:01;;;;;;;4.97;2.80;;;;;;;21.62;54.75;98843.63;5152359;27;20196;-76
2023/04/24 07:26:31;;;;;;;4.13;2.88;;;;;;;22.09;54.60;98838.75;5151257;27;20196;-76
2023/04/24 07:28:58;;;;;;;5.25;2.88;;;;;;;22.36;52.42;98840.50;5152072;27;20196;-76
2023/04/24 07:31:24;;;;;;;2.67;2.35;;;;;;;21.97;52.64;98840.28;5152040;27;20200;-76
2023/04/24 07:33:52;;;;;;;4.88;3.05;;;;;;;20.72;53.72;98837.09;5152240;27;20187;-78
2023/04/24 07:36:19;;;;;;;5.47;3.00;;;;;;;21.65;54.72;98840.63;5151849;27;20718;-77
2023/04/24 07:38:46;;;;;;;5.32;2.92;;;;;;;22.28;52.58;98840.69;5151971;27;20207;-75
2023/04/24 07:41:15;;;;;;;5.15;2.97;;;;;;;22.09;53.79;98838.75;5152186;27;20203;-75
2023/04/24 07:43:42;;;;;;;4.13;2.83;;;;;;;22.68;51.77;98838.25;5151812;27;20229;-75
2023/04/24 07:46:10;;;;;;;3.83;2.67;;;;;;;23.05;53.06;98841.41;5152758;27;20226;-75
2023/04/24 07:48:37;;;;;;;3.03;2.45;;;;;;;22.87;50.13;98841.13;5151793;27;20196;-75
2023/04/24 07:51:04;;;;;;;3.35;2.80;;;;;;;23.30;50.83;98840.81;5151951;27;20211;-75
2023/04/24 07:53:31;;;;;;;3.25;2.70;;;;;;;23.73;49.93;98847.28;5151720;27;20223;-75
2023/04/24 07:55:58;;;;;;;3.67;2.70;;;;;;;23.45;50.18;98849.28;5151616;27;20698;-75
2023/04/24 07:58:26;;;;;;;3.22;2.17;;;;;;;23.80;50.50;98849.13;5151563;27;20195;-75
2023/04/24 08:00:53;;;;;;;3.85;2.70;;;;;;;24.38;47.71;98846.59;5151818;27;20649;-76
2023/04/24 08:03:20;;;;;;;2.88;2.58;;;;;;;23.70;48.23;98850.31;5151559;27;20216;-76
2023/04/24 08:05:47;;;;;;;4.13;2.72;;;;;;;23.79;50.17;98844.91;5151159;27;20797;-76
2023/04/24 08:08:14;;;;;;;3.67;2.72;;;;;;;24.23;49.94;98851.25;5151770;27;20199;-76
2023/04/24 08:10:41;;;;;;;3.58;2.65;;;;;;;23.88;49.08;98856.72;5151374;27;20270;-76
2023/04/24 08:13:08;;;;;;;2.70;2.42;;;;;;;23.95;49.03;98853.13;5151388;27;20195;-75
2023/04/24 08:15:36;;;;;;;3.08;2.33;;;;;;;23.77;48.70;98855.56;5151179;27;20235;-75
2023/04/24 08:18:03;;;;;;;5.13;2.63;;;;;;;23.39;48.43;98855.31;5151373;27;20307;-75
2023/04/24 08:20:30;;;;;;;2.83;2.55;;;;;;;23.26;51.13;98850.88;5151376;27;20268;-75
2023/04/24 08:22:57;;;;;;;4.78;2.65;;;;;;;23.86;50.58;98851.72;5151477;27;20200;-76
2023/04/24 08:25:24;;;;;;;5.50;2.67;;;;;;;24.05;48.15;98850.06;5151375;27;20295;-76
2023/04/24 08:27:51;;;;;;;3.50;2.60;;;;;;;23.63;49.72;98852.09;5151457;27;20836;-76
2023/04/24 08:30:18;;;;;;;3.25;2.60;;;;;;;23.34;49.10;98842.06;5151230;27;20672;-76
2023/04/24 08:32:46;;;;;;;5.50;2.92;;;;;;;23.61;48.12;98848.88;5151266;27;20196;-76
2023/04/24 08:35:13;;;;;;;2.83;2.15;;;;;;;23.92;48.02;98844.91;5151415;27;20652;-75
2023/04/24 08:37:40;;;;;;;3.42;2.63;;;;;;;24.00;46.35;98847.28;5153644;27;20206;-76
2023/04/24 08:40:13;;;;;;;3.78;2.72;;;;;;;24.32;49.84;98842.19;5155293;27;20231;-75
2023/04/24 08:42:42;;;;;;;3.60;2.20;;;;;;;24.37;47.75;98837.94;5155615;27;20473;-76
2023/04/24 08:45:10;;;;;;;3.60;2.45;;;;;;;24.34;47.17;98840.16;5155528;27;20220;-76
2023/04/24 08:47:39;;;;;;;2.33;2.13;;;;;;;24.60;46.59;98840.09;5155406;27;20200;-76
2023/04/24 08:50:09;;;;;;;2.42;1.95;;;;;;;25.15;45.74;98841.47;5155389;27;20223;-76
2023/04/24 08:52:36;;;;;;;3.45;2.40;;;;;;;25.01;45.13;98833.66;5155038;27;20207;-76
2023/04/24 08:55:03;;;;;;;3.65;2.40;;;;;;;24.99;45.70;98837.53;5154973;27;20216;-76
2023/04/24 08:57:32;;;;;;;3.95;2.42;;;;;;;25.60;45.52;98833.47;5155020;27;20227;-76
2023/04/24 08:59:59;;;;;;;3.17;2.42;;;;;;;25.13;44.88;98839.00;5154659;27;20759;-76
2023/04/24 09:02:26;;;;;;;2.65;2.28;;;;;;;24.74;45.64;98837.44;5154719;27;20207;-76
2023/04/24 09:04:54;;;;;;;2.85;2.30;;;;;;;24.51;46.20;98837.94;5154992;27;20212;-75
2023/04/24 09:07:25;;;;;;;2.78;2.30;;;;;;;24.73;46.88;98844.50;5154517;27;20764;-76
2023/04/24 09:09:52;;;;;;;4.10;2.42;;;;;;;25.11;48.25;98840.25;5155248;27;20762;-76
2023/04/24 09:12:20;;;;;;;3.83;2.55;;;;;;;24.58;45.58;98839.53;5154558;27;20208;-76
2023/04/24 09:14:46;;;;;;;2.50;2.20;;;;;;;24.67;45.74;98836.66;5154639;27;20292;-76
2023/04/24 09:17:13;;;;;;;3.63;2.53;;;;;;;24.80;45.55;98832.16;5154670;27;20224;-76
2023/04/24 09:19:41;;;;;;;2.25;1.95;;;;;;;25.14;44.34;98832.03;5154617;27;20216;-76
2023/04/24 09:22:09;;;;;;;2.55;2.05;;;;;;;24.86;43.95;98825.31;5154635;27;20546;-76
2023/04/24 09:24:37;;;;;;;4.22;2.67;;;;;;;24.07;46.10;98831.59;5154402;27;20216;-76
2023/04/24 09:27:04;;;;;;;3.20;2.65;;;;;;;22.92;46.23;98828.28;5155009;27;20644;-76
2023/04/24 09:29:32;;;;;;;3.80;2.80;;;;;;;;;;5154307;27;20714;-76
2023/04/24 09:31:59;;;;;;;2.45;2.10;;;;;;;24.23;46.28;98825.94;5154375;27;20197;-76
2023/04/24 09:34:28;;;;;;;3.13;2.40;;;;;;;24.02;43.99;98829.59;5154074;27;20813;-76
2023/04/24 09:36:55;;;;;;;2.90;2.17;;;;;;;23.91;47.22;98822.38;5154530;27;20280;-76
2023/04/24 09:39:22;;;;;;;3.25;2.30;;;;;;;24.41;44.79;98817.44;5154922;27;20220;-75
2023/04/24 09:41:52;;;;;;;3.10;2.40;;;;;;;23.69;44.77;98825.19;5154120;27;20208;-75
2023/04/24 09:44:21;;;;;;;2.63;2.22;;;;;;;23.93;45.80;98820.38;5154694;27;20212;-76
2023/04/24 09:46:51;;;;;;;3.58;2.53;;;;;;;23.50;45.60;98823.38;5154093;27;20196;-76
2023/04/24 09:49:23;;;;;;;2.88;2.50;;;;;;;23.46;47.75;98819.56;5153064;27;20284;-76
2023/04/24 09:51:50;;;;;;;4.63;2.65;;;;;;;23.11;47.27;98811.91;5153932;27;20195;-75
2023/04/24 09:54:19;;;;;;;5.97;2.33;;;;;;;23.41;47.89;98819.38;5154042;27;20264;-76
2023/04/24 09:56:48;;;;;;;4.20;2.30;;;;;;;22.23;47.32;98808.41;5153745;27;20223;-76
2023/04/24 09:59:20;;;;;;;2.70;2.15;;;;;;;23.11;47.11;98808.50;5153566;27;20271;-76
2023/04/24 10:01:48;;;;;;;6.72;2.47;;;;;;;22.79;46.61;98806.41;5154167;27;20674;-76
2023/04/24 10:04:19;;;;;;;2.95;2.47;;;;;;;23.24;47.27;98809.34;5154931;27;20228;-75
2023/04/24 10:06:48;;;;;;;3.72;2.35;;;;;;;22.65;48.43;98807.38;5154691;27;20683;-75
2023/04/24 10:09:15;;;;;;;2.53;2.17;;;;;;;22.67;46.40;98800.16;5153486;27;20215;-76
2023/04/24 10:11:44;;;;;;;3.63;2.50;;;;;;;22.69;46.04;98800.78;5153663;27;20196;-76
2023/04/24 10:14:14;;;;;;;3.50;2.58;;;;;;;22.31;47.65;98790.81;5153506;27;20264;-75
2023/04/24 10:16:43;;;;;;;4.95;2.70;;;;;;;22.46;48.77;98787.28;5153653;27;20239;-75
2023/04/24 10:19:12;;;;;;;3.80;2.67;;;;;;;22.45;47.28;98793.47;5153663;27;20223;-76
2023/04/24 10:21:46;;;;;;;3.13;2.42;;;;;;;22.46;49.27;98782.06;5153567;27;20196;-75
2023/04/24 10:24:13;;;;;;;3.35;2.53;;;;;;;22.72;49.39;98786.53;5153390;27;20277;-76
2023/04/24 10:26:41;;;;;;;4.15;2.60;;;;;;;22.75;47.21;98786.97;5153602;27;20236;-76
2023/04/24 10:29:09;;;;;;;3.35;2.63;;;;;;;22.40;49.76;98788.03;5153347;27;20642;-76
2023/04/24 10:31:38;;;;;;;3.42;2.60;;;;;;;22.57;48.98;98789.28;5153133;27;20361;-76
2023/04/24 10:34:07;;;;;;;6.85;2.60;;;;;;;22.65;47.48;98790.94;5153216;27;20307;-76
2023/04/24 10:36:35;;;;;;;2.67;2.20;;;;;;;22.85;46.60;98796.19;5153066;27;20224;-76
2023/04/24 10:39:04;;;;;;;3.03;2.40;;;;;;;22.91;45.86;98792.81;5153175;27;20207;-76
2023/04/24 10:41:31;;;;;;;4.07;2.50;;;;;;;22.29;47.85;98787.59;5152995;27;20196;-76
2023/04/24 10:44:09;;;;;;;3.38;2.63;;;;;;;21.98;46.72;98789.81;5153048;27;20196;-76
2023/04/24 10:46:44;;;;;;;3.10;2.50;;;;;;;21.66;47.14;98779.78;5152918;27;20196;-75
2023/04/24 10:49:13;;;;;;;4.85;2.55;;;;;;;22.03;46.78;98777.81;5153272;27;20220;-76
2023/04/24 10:51:48;;;;;;;3.08;2.40;;;;;;;22.16;47.21;98771.88;5152981;27;20200;-76
2023/04/24 10:54:26;;;;;;;2.80;2.20;;;;;;;22.27;45.81;98776.56;5153258;27;20220;-75
2023/04/24 10:56:53;;;;;;;2.78;2.22;;;;;;;21.97;44.86;98773.38;5152836;27;20219;-75
2023/04/24 10:59:27;;;;;;;3.70;2.40;;;;;;;22.44;45.75;98766.63;5152371;27;20212;-75
2023/04/24 11:01:55;;;;;;;2.60;2.22;;;;;;;22.22;46.97;98770.31;5152754;27;20212;-75
2023/04/24 11:04:32;;;;;;;2.92;2.53;;;;;;;22.24;45.34;98757.91;5152428;27;20296;-75
2023/04/24 11:06:59;;;;;;;3.30;2.83;;;;;;;22.54;46.38;98759.25;5152702;27;20277;-75
2023/04/24 11:09:28;;;;;;;2.22;2.03;;;;;;;22.77;45.02;98761.47;5152762;27;20276;-76
2023/04/24 11:12:06;;;;;;;4.38;2.50;;;;;;;22.89;44.65;98764.31;5152570;27;20660;-75
2023/04/24 11:15:02;;;;;;;3.92;2.42;;;;;;;22.81;44.40;98754.88;5152755;27;20251;-75
2023/04/24 11:17:34;;;;;;;2.42;1.90;;;;;;;22.87;44.56;98758.50;5152288;27;20235;-75
2023/04/24 11:20:07;;;;;;;3.38;2.53;;;;;;;22.51;44.94;98749.19;5152189;27;20216;-75
2023/04/24 11:22:36;;;;;;;5.00;2.30;;;;;;;22.40;43.74;98755.00;5152467;27;20200;-75
2023/04/24 11:25:03;;;;;;;3.22;2.50;;;;;;;22.66;43.81;98750.84;5151880;27;20303;-75
2023/04/24 11:27:32;;;;;;;2.85;2.20;;;;;;;22.74;44.14;98746.25;5152179;27;20219;-75
2023/04/24 11:30:04;;;;;;;4.50;2.25;;;;;;;22.64;44.15;98739.81;5152020;27;20288;-75
2023/04/24 11:32:35;;;;;;;2.85;2.13;;;;;;;22.73;44.57;98741.25;5152311;27;22683;-75
2023/04/24 11:35:04;;;;;;;3.05;2.30;;;;;;;23.19;45.11;98746.53;5152112;27;20228;-77
2023/04/24 11:37:36;;;;;;;3.40;2.25;;;;;;;23.61;44.12;98741.88;5151906;27;20710;-75